sensor_id;sensor_type;location;lat;lon;timestamp;P1;durP1;ratioP1;P2;durP2;ratioP2
26407;SDS011;14583;43.604;1.364;2024-01-15T00:00:32;28.70;;;19.73;;
26407;SDS011;14583;43.604;1.364;2024-01-15T00:02:58;28.42;;;19.45;;
26407;SDS011;14583;43.604;1.364;2024-01-15T00:05:24;25.88;;;18.48;;
26407;SDS011;14583;43.604;1.364;2024-01-15T00:07:50;27.52;;;17.80;;
26407;SDS011;14583;43.604;1.364;2024-01-15T00:10:24;28.05;;;17.40;;
26407;SDS011;14583;43.604;1.364;2024-01-15T00:12:50;24.08;;;14.15;;
26407;SDS011;14583;43.604;1.364;2024-01-15T00:15:16;22.70;;;14.23;;
26407;SDS011;14583;43.604;1.364;2024-01-15T00:17:42;18.00;;;12.68;;
26407;SDS011;14583;43.604;1.364;2024-01-15T00:20:07;17.95;;;12.02;;
26407;SDS011;14583;43.604;1.364;2024-01-15T00:22:33;19.63;;;12.38;;
26407;SDS011;14583;43.604;1.364;2024-01-15T00:25:00;21.85;;;11.93;;
26407;SDS011;14583;43.604;1.364;2024-01-15T00:27:27;24.13;;;10.38;;
26407;SDS011;14583;43.604;1.364;2024-01-15T00:29:53;14.88;;;9.65;;
26407;SDS011;14583;43.604;1.364;2024-01-15T00:32:19;17.88;;;9.48;;
26407;SDS011;14583;43.604;1.364;2024-01-15T00:34:45;21.25;;;9.88;;
26407;SDS011;14583;43.604;1.364;2024-01-15T00:37:11;21.33;;;11.07;;
26407;SDS011;14583;43.604;1.364;2024-01-15T00:39:37;18.08;;;10.85;;
26407;SDS011;14583;43.604;1.364;2024-01-15T00:42:11;20.20;;;11.82;;
26407;SDS011;14583;43.604;1.364;2024-01-15T00:44:37;19.95;;;12.07;;
26407;SDS011;14583;43.604;1.364;2024-01-15T00:47:03;20.75;;;11.15;;
26407;SDS011;14583;43.604;1.364;2024-01-15T00:49:29;24.17;;;10.27;;
26407;SDS011;14583;43.604;1.364;2024-01-15T00:51:55;20.05;;;11.75;;
26407;SDS011;14583;43.604;1.364;2024-01-15T00:54:20;16.80;;;11.70;;
26407;SDS011;14583;43.604;1.364;2024-01-15T00:56:46;22.55;;;12.05;;
26407;SDS011;14583;43.604;1.364;2024-01-15T00:59:12;16.88;;;11.60;;
26407;SDS011;14583;43.604;1.364;2024-01-15T01:01:40;17.48;;;10.38;;
26407;SDS011;14583;43.604;1.364;2024-01-15T01:04:08;18.35;;;10.27;;
26407;SDS011;14583;43.604;1.364;2024-01-15T01:06:35;16.42;;;9.20;;
26407;SDS011;14583;43.604;1.364;2024-01-15T01:09:00;16.55;;;9.55;;
26407;SDS011;14583;43.604;1.364;2024-01-15T01:11:26;21.50;;;9.55;;
26407;SDS011;14583;43.604;1.364;2024-01-15T01:13:52;14.82;;;9.70;;
26407;SDS011;14583;43.604;1.364;2024-01-15T01:16:18;16.88;;;9.60;;
26407;SDS011;14583;43.604;1.364;2024-01-15T01:18:43;17.15;;;9.82;;
26407;SDS011;14583;43.604;1.364;2024-01-15T01:21:09;18.35;;;10.15;;
26407;SDS011;14583;43.604;1.364;2024-01-15T01:23:35;15.10;;;9.75;;
26407;SDS011;14583;43.604;1.364;2024-01-15T01:26:00;18.23;;;10.10;;
26407;SDS011;14583;43.604;1.364;2024-01-15T01:28:26;21.90;;;9.70;;
26407;SDS011;14583;43.604;1.364;2024-01-15T01:30:52;15.23;;;10.27;;
26407;SDS011;14583;43.604;1.364;2024-01-15T01:33:18;18.38;;;10.75;;
26407;SDS011;14583;43.604;1.364;2024-01-15T01:35:44;22.00;;;10.68;;
26407;SDS011;14583;43.604;1.364;2024-01-15T01:38:10;20.70;;;12.10;;
26407;SDS011;14583;43.604;1.364;2024-01-15T01:40:35;19.08;;;11.80;;
26407;SDS011;14583;43.604;1.364;2024-01-15T01:43:02;24.23;;;13.23;;
26407;SDS011;14583;43.604;1.364;2024-01-15T01:45:29;20.67;;;10.98;;
26407;SDS011;14583;43.604;1.364;2024-01-15T01:47:55;17.55;;;11.70;;
26407;SDS011;14583;43.604;1.364;2024-01-15T01:50:21;20.75;;;11.02;;
26407;SDS011;14583;43.604;1.364;2024-01-15T01:52:47;20.95;;;11.63;;
26407;SDS011;14583;43.604;1.364;2024-01-15T01:55:14;16.33;;;9.88;;
26407;SDS011;14583;43.604;1.364;2024-01-15T01:57:39;17.17;;;10.60;;
26407;SDS011;14583;43.604;1.364;2024-01-15T02:00:06;18.17;;;10.85;;
26407;SDS011;14583;43.604;1.364;2024-01-15T02:02:33;19.90;;;11.13;;
26407;SDS011;14583;43.604;1.364;2024-01-15T02:04:59;17.00;;;10.10;;
26407;SDS011;14583;43.604;1.364;2024-01-15T02:07:25;22.85;;;10.90;;
26407;SDS011;14583;43.604;1.364;2024-01-15T02:09:50;16.27;;;9.63;;
26407;SDS011;14583;43.604;1.364;2024-01-15T02:12:16;20.38;;;10.52;;
26407;SDS011;14583;43.604;1.364;2024-01-15T02:14:42;15.88;;;9.93;;
26407;SDS011;14583;43.604;1.364;2024-01-15T02:17:08;17.95;;;10.98;;
26407;SDS011;14583;43.604;1.364;2024-01-15T02:19:33;16.50;;;10.65;;
26407;SDS011;14583;43.604;1.364;2024-01-15T02:21:59;16.50;;;10.75;;
26407;SDS011;14583;43.604;1.364;2024-01-15T02:24:28;19.38;;;11.32;;
26407;SDS011;14583;43.604;1.364;2024-01-15T02:26:54;22.17;;;11.30;;
26407;SDS011;14583;43.604;1.364;2024-01-15T02:29:19;18.60;;;10.95;;
26407;SDS011;14583;43.604;1.364;2024-01-15T02:31:45;15.20;;;10.35;;
26407;SDS011;14583;43.604;1.364;2024-01-15T02:34:11;20.27;;;11.30;;
26407;SDS011;14583;43.604;1.364;2024-01-15T02:36:36;17.27;;;10.88;;
26407;SDS011;14583;43.604;1.364;2024-01-15T02:39:02;21.67;;;11.68;;
26407;SDS011;14583;43.604;1.364;2024-01-15T02:41:28;19.25;;;10.50;;
26407;SDS011;14583;43.604;1.364;2024-01-15T02:43:54;17.90;;;11.25;;
26407;SDS011;14583;43.604;1.364;2024-01-15T02:46:19;18.77;;;11.80;;
26407;SDS011;14583;43.604;1.364;2024-01-15T02:48:45;19.75;;;11.70;;
26407;SDS011;14583;43.604;1.364;2024-01-15T02:51:11;22.42;;;11.63;;
26407;SDS011;14583;43.604;1.364;2024-01-15T02:53:37;19.10;;;11.73;;
26407;SDS011;14583;43.604;1.364;2024-01-15T02:56:03;19.85;;;12.05;;
26407;SDS011;14583;43.604;1.364;2024-01-15T02:58:29;24.42;;;12.10;;
26407;SDS011;14583;43.604;1.364;2024-01-15T03:00:55;19.90;;;12.20;;
26407;SDS011;14583;43.604;1.364;2024-01-15T03:03:20;15.80;;;9.80;;
26407;SDS011;14583;43.604;1.364;2024-01-15T03:05:46;17.63;;;11.70;;
26407;SDS011;14583;43.604;1.364;2024-01-15T03:08:12;20.23;;;10.15;;
26407;SDS011;14583;43.604;1.364;2024-01-15T03:10:38;17.73;;;11.63;;
26407;SDS011;14583;43.604;1.364;2024-01-15T03:13:03;15.50;;;10.63;;
26407;SDS011;14583;43.604;1.364;2024-01-15T03:15:29;19.80;;;11.82;;
26407;SDS011;14583;43.604;1.364;2024-01-15T03:17:55;22.30;;;12.85;;
26407;SDS011;14583;43.604;1.364;2024-01-15T03:20:20;20.55;;;12.15;;
26407;SDS011;14583;43.604;1.364;2024-01-15T03:22:46;21.50;;;11.82;;
26407;SDS011;14583;43.604;1.364;2024-01-15T03:25:12;16.85;;;10.88;;
26407;SDS011;14583;43.604;1.364;2024-01-15T03:27:37;23.27;;;11.15;;
26407;SDS011;14583;43.604;1.364;2024-01-15T03:30:03;19.30;;;11.90;;
26407;SDS011;14583;43.604;1.364;2024-01-15T03:32:29;18.98;;;11.20;;
26407;SDS011;14583;43.604;1.364;2024-01-15T03:34:55;19.35;;;11.55;;
26407;SDS011;14583;43.604;1.364;2024-01-15T03:37:20;18.17;;;11.82;;
26407;SDS011;14583;43.604;1.364;2024-01-15T03:39:46;24.42;;;12.45;;
26407;SDS011;14583;43.604;1.364;2024-01-15T03:42:15;21.13;;;12.15;;
26407;SDS011;14583;43.604;1.364;2024-01-15T03:44:41;22.45;;;12.38;;
26407;SDS011;14583;43.604;1.364;2024-01-15T03:47:06;22.33;;;13.07;;
26407;SDS011;14583;43.604;1.364;2024-01-15T03:49:32;24.00;;;12.20;;
26407;SDS011;14583;43.604;1.364;2024-01-15T03:51:57;22.23;;;12.75;;
26407;SDS011;14583;43.604;1.364;2024-01-15T03:54:23;22.25;;;12.52;;
26407;SDS011;14583;43.604;1.364;2024-01-15T03:56:49;20.55;;;12.45;;
26407;SDS011;14583;43.604;1.364;2024-01-15T03:59:15;21.20;;;11.60;;
26407;SDS011;14583;43.604;1.364;2024-01-15T04:01:40;17.70;;;12.25;;
26407;SDS011;14583;43.604;1.364;2024-01-15T04:04:06;17.67;;;12.15;;
26407;SDS011;14583;43.604;1.364;2024-01-15T04:06:32;20.02;;;11.77;;
26407;SDS011;14583;43.604;1.364;2024-01-15T04:08:59;21.00;;;11.50;;
26407;SDS011;14583;43.604;1.364;2024-01-15T04:11:24;22.25;;;11.60;;
26407;SDS011;14583;43.604;1.364;2024-01-15T04:13:50;18.85;;;11.77;;
26407;SDS011;14583;43.604;1.364;2024-01-15T04:16:16;15.88;;;12.00;;
26407;SDS011;14583;43.604;1.364;2024-01-15T04:18:42;17.85;;;11.02;;
26407;SDS011;14583;43.604;1.364;2024-01-15T04:21:07;24.17;;;12.68;;
26407;SDS011;14583;43.604;1.364;2024-01-15T04:23:33;15.82;;;10.77;;
26407;SDS011;14583;43.604;1.364;2024-01-15T04:25:59;19.95;;;11.98;;
26407;SDS011;14583;43.604;1.364;2024-01-15T04:28:24;20.48;;;13.05;;
26407;SDS011;14583;43.604;1.364;2024-01-15T04:30:50;22.20;;;13.45;;
26407;SDS011;14583;43.604;1.364;2024-01-15T04:33:15;26.05;;;13.88;;
26407;SDS011;14583;43.604;1.364;2024-01-15T04:35:41;19.02;;;13.00;;
26407;SDS011;14583;43.604;1.364;2024-01-15T04:38:07;23.48;;;14.80;;
26407;SDS011;14583;43.604;1.364;2024-01-15T04:40:32;27.25;;;13.18;;
26407;SDS011;14583;43.604;1.364;2024-01-15T04:42:58;23.73;;;14.55;;
26407;SDS011;14583;43.604;1.364;2024-01-15T04:45:24;25.52;;;14.60;;
26407;SDS011;14583;43.604;1.364;2024-01-15T04:47:53;28.92;;;15.85;;
26407;SDS011;14583;43.604;1.364;2024-01-15T04:50:21;23.60;;;14.60;;
26407;SDS011;14583;43.604;1.364;2024-01-15T04:52:47;24.23;;;14.13;;
26407;SDS011;14583;43.604;1.364;2024-01-15T04:55:13;21.92;;;13.75;;
26407;SDS011;14583;43.604;1.364;2024-01-15T04:57:38;20.38;;;13.60;;
26407;SDS011;14583;43.604;1.364;2024-01-15T05:00:04;30.20;;;14.70;;
26407;SDS011;14583;43.604;1.364;2024-01-15T05:02:30;24.10;;;14.55;;
26407;SDS011;14583;43.604;1.364;2024-01-15T05:04:56;22.55;;;14.82;;
26407;SDS011;14583;43.604;1.364;2024-01-15T05:07:22;26.23;;;15.27;;
26407;SDS011;14583;43.604;1.364;2024-01-15T05:09:47;23.60;;;14.40;;
26407;SDS011;14583;43.604;1.364;2024-01-15T05:12:13;24.38;;;15.77;;
26407;SDS011;14583;43.604;1.364;2024-01-15T05:14:39;21.55;;;14.15;;
26407;SDS011;14583;43.604;1.364;2024-01-15T05:17:05;23.40;;;15.10;;
26407;SDS011;14583;43.604;1.364;2024-01-15T05:19:30;24.52;;;15.73;;
26407;SDS011;14583;43.604;1.364;2024-01-15T05:21:56;24.75;;;15.82;;
26407;SDS011;14583;43.604;1.364;2024-01-15T05:24:22;22.95;;;14.95;;
26407;SDS011;14583;43.604;1.364;2024-01-15T05:26:47;24.63;;;14.77;;
26407;SDS011;14583;43.604;1.364;2024-01-15T05:29:13;25.77;;;15.60;;
26407;SDS011;14583;43.604;1.364;2024-01-15T05:31:39;24.77;;;16.73;;
26407;SDS011;14583;43.604;1.364;2024-01-15T05:34:05;20.52;;;14.88;;
26407;SDS011;14583;43.604;1.364;2024-01-15T05:36:30;19.42;;;13.48;;
26407;SDS011;14583;43.604;1.364;2024-01-15T05:38:56;26.15;;;14.90;;
26407;SDS011;14583;43.604;1.364;2024-01-15T05:41:22;24.27;;;16.08;;
26407;SDS011;14583;43.604;1.364;2024-01-15T05:43:47;21.67;;;14.27;;
26407;SDS011;14583;43.604;1.364;2024-01-15T05:46:13;26.50;;;14.98;;
26407;SDS011;14583;43.604;1.364;2024-01-15T05:48:40;21.60;;;13.88;;
26407;SDS011;14583;43.604;1.364;2024-01-15T05:51:06;24.13;;;15.30;;
26407;SDS011;14583;43.604;1.364;2024-01-15T05:53:31;23.15;;;15.57;;
26407;SDS011;14583;43.604;1.364;2024-01-15T05:55:57;20.83;;;14.05;;
26407;SDS011;14583;43.604;1.364;2024-01-15T05:58:23;30.77;;;17.15;;
26407;SDS011;14583;43.604;1.364;2024-01-15T06:00:49;30.25;;;18.33;;
26407;SDS011;14583;43.604;1.364;2024-01-15T06:03:15;32.45;;;19.63;;
26407;SDS011;14583;43.604;1.364;2024-01-15T06:05:40;37.90;;;21.02;;
26407;SDS011;14583;43.604;1.364;2024-01-15T06:08:06;33.95;;;19.17;;
26407;SDS011;14583;43.604;1.364;2024-01-15T06:10:32;42.80;;;20.60;;
26407;SDS011;14583;43.604;1.364;2024-01-15T06:12:58;49.70;;;25.17;;
26407;SDS011;14583;43.604;1.364;2024-01-15T06:15:24;56.72;;;25.25;;
26407;SDS011;14583;43.604;1.364;2024-01-15T06:17:49;66.13;;;26.55;;
26407;SDS011;14583;43.604;1.364;2024-01-15T06:20:16;51.50;;;24.88;;
26407;SDS011;14583;43.604;1.364;2024-01-15T06:22:42;60.60;;;25.00;;
26407;SDS011;14583;43.604;1.364;2024-01-15T06:25:08;66.45;;;25.95;;
26407;SDS011;14583;43.604;1.364;2024-01-15T06:27:34;88.20;;;31.90;;
26407;SDS011;14583;43.604;1.364;2024-01-15T06:29:59;108.65;;;35.28;;
26407;SDS011;14583;43.604;1.364;2024-01-15T06:32:25;101.18;;;34.90;;
26407;SDS011;14583;43.604;1.364;2024-01-15T06:34:51;99.00;;;34.28;;
26407;SDS011;14583;43.604;1.364;2024-01-15T06:37:16;83.22;;;34.08;;
26407;SDS011;14583;43.604;1.364;2024-01-15T06:39:45;61.33;;;26.48;;
26407;SDS011;14583;43.604;1.364;2024-01-15T06:42:10;75.90;;;30.02;;
26407;SDS011;14583;43.604;1.364;2024-01-15T06:44:36;92.45;;;33.60;;
26407;SDS011;14583;43.604;1.364;2024-01-15T06:47:02;74.70;;;31.88;;
26407;SDS011;14583;43.604;1.364;2024-01-15T06:49:29;82.03;;;34.80;;
26407;SDS011;14583;43.604;1.364;2024-01-15T06:51:55;83.18;;;33.65;;
26407;SDS011;14583;43.604;1.364;2024-01-15T06:54:21;146.82;;;37.50;;
26407;SDS011;14583;43.604;1.364;2024-01-15T06:56:46;128.85;;;39.33;;
26407;SDS011;14583;43.604;1.364;2024-01-15T06:59:12;101.85;;;35.60;;
26407;SDS011;14583;43.604;1.364;2024-01-15T07:01:38;125.82;;;38.13;;
26407;SDS011;14583;43.604;1.364;2024-01-15T07:04:03;100.65;;;33.63;;
26407;SDS011;14583;43.604;1.364;2024-01-15T07:06:29;169.95;;;42.13;;
26407;SDS011;14583;43.604;1.364;2024-01-15T07:08:55;109.40;;;40.22;;
26407;SDS011;14583;43.604;1.364;2024-01-15T07:11:43;105.70;;;37.85;;
26407;SDS011;14583;43.604;1.364;2024-01-15T07:14:14;100.78;;;36.80;;
26407;SDS011;14583;43.604;1.364;2024-01-15T07:16:40;98.00;;;36.42;;
26407;SDS011;14583;43.604;1.364;2024-01-15T07:19:06;104.97;;;38.55;;
26407;SDS011;14583;43.604;1.364;2024-01-15T07:21:32;105.93;;;38.88;;
26407;SDS011;14583;43.604;1.364;2024-01-15T07:23:58;115.03;;;40.88;;
26407;SDS011;14583;43.604;1.364;2024-01-15T07:26:23;108.88;;;38.85;;
26407;SDS011;14583;43.604;1.364;2024-01-15T07:28:50;94.57;;;37.75;;
26407;SDS011;14583;43.604;1.364;2024-01-15T07:31:17;96.15;;;37.22;;
26407;SDS011;14583;43.604;1.364;2024-01-15T07:33:43;95.70;;;35.40;;
26407;SDS011;14583;43.604;1.364;2024-01-15T07:36:09;87.50;;;34.95;;
26407;SDS011;14583;43.604;1.364;2024-01-15T07:38:34;92.25;;;34.78;;
26407;SDS011;14583;43.604;1.364;2024-01-15T07:41:00;93.95;;;34.53;;
26407;SDS011;14583;43.604;1.364;2024-01-15T07:43:26;90.40;;;37.22;;
26407;SDS011;14583;43.604;1.364;2024-01-15T07:45:53;93.43;;;38.30;;
26407;SDS011;14583;43.604;1.364;2024-01-15T07:48:18;93.20;;;36.28;;
26407;SDS011;14583;43.604;1.364;2024-01-15T07:50:45;104.47;;;38.80;;
26407;SDS011;14583;43.604;1.364;2024-01-15T07:53:11;83.60;;;37.28;;
26407;SDS011;14583;43.604;1.364;2024-01-15T07:55:36;92.97;;;36.97;;
26407;SDS011;14583;43.604;1.364;2024-01-15T07:58:03;78.90;;;33.67;;
26407;SDS011;14583;43.604;1.364;2024-01-15T08:00:28;86.55;;;34.50;;
26407;SDS011;14583;43.604;1.364;2024-01-15T08:02:54;74.07;;;31.55;;
26407;SDS011;14583;43.604;1.364;2024-01-15T08:05:20;66.13;;;29.45;;
26407;SDS011;14583;43.604;1.364;2024-01-15T08:07:46;65.13;;;29.67;;
26407;SDS011;14583;43.604;1.364;2024-01-15T08:10:12;74.53;;;31.35;;
26407;SDS011;14583;43.604;1.364;2024-01-15T08:12:39;83.05;;;33.10;;
26407;SDS011;14583;43.604;1.364;2024-01-15T08:15:04;85.22;;;32.10;;
26407;SDS011;14583;43.604;1.364;2024-01-15T08:17:33;87.60;;;33.08;;
26407;SDS011;14583;43.604;1.364;2024-01-15T08:19:59;84.75;;;31.77;;
26407;SDS011;14583;43.604;1.364;2024-01-15T08:22:26;83.20;;;32.05;;
26407;SDS011;14583;43.604;1.364;2024-01-15T08:24:51;83.40;;;32.65;;
26407;SDS011;14583;43.604;1.364;2024-01-15T08:27:18;75.55;;;31.42;;
26407;SDS011;14583;43.604;1.364;2024-01-15T08:29:45;76.82;;;31.48;;
26407;SDS011;14583;43.604;1.364;2024-01-15T08:32:10;73.93;;;29.83;;
26407;SDS011;14583;43.604;1.364;2024-01-15T08:34:39;68.20;;;30.45;;
26407;SDS011;14583;43.604;1.364;2024-01-15T08:37:05;55.63;;;27.48;;
26407;SDS011;14583;43.604;1.364;2024-01-15T08:39:30;65.65;;;29.58;;
26407;SDS011;14583;43.604;1.364;2024-01-15T08:41:56;71.35;;;29.40;;
26407;SDS011;14583;43.604;1.364;2024-01-15T08:44:22;69.03;;;30.30;;
26407;SDS011;14583;43.604;1.364;2024-01-15T08:46:47;64.72;;;30.00;;
26407;SDS011;14583;43.604;1.364;2024-01-15T08:49:13;72.35;;;30.20;;
26407;SDS011;14583;43.604;1.364;2024-01-15T08:51:39;63.88;;;29.70;;
26407;SDS011;14583;43.604;1.364;2024-01-15T08:54:05;62.63;;;28.90;;
26407;SDS011;14583;43.604;1.364;2024-01-15T08:56:30;55.65;;;27.30;;
26407;SDS011;14583;43.604;1.364;2024-01-15T08:58:56;60.97;;;28.90;;
26407;SDS011;14583;43.604;1.364;2024-01-15T09:01:22;63.05;;;28.55;;
26407;SDS011;14583;43.604;1.364;2024-01-15T09:03:51;61.22;;;29.88;;
26407;SDS011;14583;43.604;1.364;2024-01-15T09:06:19;59.97;;;28.30;;
26407;SDS011;14583;43.604;1.364;2024-01-15T09:08:45;64.40;;;28.85;;
26407;SDS011;14583;43.604;1.364;2024-01-15T09:11:11;69.15;;;28.98;;
26407;SDS011;14583;43.604;1.364;2024-01-15T09:13:37;68.55;;;29.45;;
26407;SDS011;14583;43.604;1.364;2024-01-15T09:16:03;60.17;;;29.42;;
26407;SDS011;14583;43.604;1.364;2024-01-15T09:18:29;67.80;;;29.17;;
26407;SDS011;14583;43.604;1.364;2024-01-15T09:20:55;53.50;;;27.55;;
26407;SDS011;14583;43.604;1.364;2024-01-15T09:23:21;53.42;;;28.52;;
26407;SDS011;14583;43.604;1.364;2024-01-15T09:25:46;61.08;;;27.85;;
26407;SDS011;14583;43.604;1.364;2024-01-15T09:28:13;58.45;;;27.65;;
26407;SDS011;14583;43.604;1.364;2024-01-15T09:30:39;62.83;;;29.83;;
26407;SDS011;14583;43.604;1.364;2024-01-15T09:33:05;54.30;;;27.52;;
26407;SDS011;14583;43.604;1.364;2024-01-15T09:35:30;76.25;;;32.70;;
26407;SDS011;14583;43.604;1.364;2024-01-15T09:37:56;64.65;;;31.35;;
26407;SDS011;14583;43.604;1.364;2024-01-15T09:40:22;65.57;;;29.08;;
26407;SDS011;14583;43.604;1.364;2024-01-15T09:42:50;71.70;;;31.50;;
26407;SDS011;14583;43.604;1.364;2024-01-15T09:45:16;62.95;;;29.65;;
26407;SDS011;14583;43.604;1.364;2024-01-15T09:47:42;59.08;;;28.25;;
26407;SDS011;14583;43.604;1.364;2024-01-15T09:50:08;63.40;;;30.55;;
26407;SDS011;14583;43.604;1.364;2024-01-15T09:52:34;61.17;;;29.35;;
26407;SDS011;14583;43.604;1.364;2024-01-15T09:55:01;65.68;;;30.05;;
26407;SDS011;14583;43.604;1.364;2024-01-15T09:57:28;64.97;;;31.27;;
26407;SDS011;14583;43.604;1.364;2024-01-15T09:59:54;75.57;;;33.55;;
26407;SDS011;14583;43.604;1.364;2024-01-15T10:02:22;67.50;;;31.70;;
26407;SDS011;14583;43.604;1.364;2024-01-15T10:04:48;67.97;;;30.10;;
26407;SDS011;14583;43.604;1.364;2024-01-15T10:07:15;57.67;;;29.38;;
26407;SDS011;14583;43.604;1.364;2024-01-15T10:09:44;57.97;;;29.15;;
26407;SDS011;14583;43.604;1.364;2024-01-15T10:12:11;66.35;;;31.50;;
26407;SDS011;14583;43.604;1.364;2024-01-15T10:14:37;60.28;;;30.77;;
26407;SDS011;14583;43.604;1.364;2024-01-15T10:17:15;57.15;;;29.38;;
26407;SDS011;14583;43.604;1.364;2024-01-15T10:19:40;56.25;;;30.98;;
26407;SDS011;14583;43.604;1.364;2024-01-15T10:22:07;57.90;;;29.95;;
26407;SDS011;14583;43.604;1.364;2024-01-15T10:24:35;51.78;;;29.05;;
26407;SDS011;14583;43.604;1.364;2024-01-15T10:27:06;56.08;;;30.30;;
26407;SDS011;14583;43.604;1.364;2024-01-15T10:29:32;56.25;;;28.90;;
26407;SDS011;14583;43.604;1.364;2024-01-15T10:31:58;56.00;;;28.98;;
26407;SDS011;14583;43.604;1.364;2024-01-15T10:34:24;55.17;;;29.63;;
26407;SDS011;14583;43.604;1.364;2024-01-15T10:36:50;54.85;;;29.85;;
26407;SDS011;14583;43.604;1.364;2024-01-15T10:39:23;56.42;;;29.50;;
26407;SDS011;14583;43.604;1.364;2024-01-15T10:41:50;54.55;;;29.42;;
26407;SDS011;14583;43.604;1.364;2024-01-15T10:44:16;48.78;;;28.52;;
26407;SDS011;14583;43.604;1.364;2024-01-15T10:46:43;51.80;;;29.58;;
26407;SDS011;14583;43.604;1.364;2024-01-15T10:49:10;51.17;;;29.00;;
26407;SDS011;14583;43.604;1.364;2024-01-15T10:51:37;48.20;;;29.52;;
26407;SDS011;14583;43.604;1.364;2024-01-15T10:54:04;51.15;;;32.17;;
26407;SDS011;14583;43.604;1.364;2024-01-15T10:56:30;74.03;;;30.60;;
26407;SDS011;14583;43.604;1.364;2024-01-15T10:59:00;75.38;;;32.00;;
26407;SDS011;14583;43.604;1.364;2024-01-15T11:01:26;60.00;;;28.58;;
26407;SDS011;14583;43.604;1.364;2024-01-15T11:03:54;54.65;;;30.75;;
26407;SDS011;14583;43.604;1.364;2024-01-15T11:06:23;62.97;;;31.60;;
26407;SDS011;14583;43.604;1.364;2024-01-15T11:08:50;68.65;;;31.75;;
26407;SDS011;14583;43.604;1.364;2024-01-15T11:11:17;83.70;;;33.80;;
26407;SDS011;14583;43.604;1.364;2024-01-15T11:13:43;84.45;;;35.70;;
26407;SDS011;14583;43.604;1.364;2024-01-15T11:16:12;55.60;;;31.33;;
26407;SDS011;14583;43.604;1.364;2024-01-15T11:18:42;65.72;;;37.10;;
26407;SDS011;14583;43.604;1.364;2024-01-15T11:21:26;65.72;;;37.47;;
26407;SDS011;14583;43.604;1.364;2024-01-15T11:23:58;62.03;;;36.05;;
26407;SDS011;14583;43.604;1.364;2024-01-15T11:29:01;54.35;;;32.38;;
26407;SDS011;14583;43.604;1.364;2024-01-15T11:31:29;63.92;;;33.20;;
26407;SDS011;14583;43.604;1.364;2024-01-15T11:34:15;56.58;;;32.58;;
26407;SDS011;14583;43.604;1.364;2024-01-15T11:41:58;44.78;;;29.98;;
26407;SDS011;14583;43.604;1.364;2024-01-15T11:44:30;44.90;;;31.25;;
26407;SDS011;14583;43.604;1.364;2024-01-15T11:47:00;40.47;;;31.05;;
26407;SDS011;14583;43.604;1.364;2024-01-15T11:51:56;43.08;;;30.98;;
26407;SDS011;14583;43.604;1.364;2024-01-15T11:54:23;46.85;;;34.28;;
26407;SDS011;14583;43.604;1.364;2024-01-15T11:56:50;46.83;;;32.67;;
26407;SDS011;14583;43.604;1.364;2024-01-15T11:59:17;45.58;;;31.88;;
26407;SDS011;14583;43.604;1.364;2024-01-15T12:01:43;47.60;;;34.10;;
26407;SDS011;14583;43.604;1.364;2024-01-15T12:04:09;49.75;;;33.72;;
26407;SDS011;14583;43.604;1.364;2024-01-15T12:06:34;46.40;;;35.75;;
26407;SDS011;14583;43.604;1.364;2024-01-15T12:09:07;52.28;;;40.38;;
26407;SDS011;14583;43.604;1.364;2024-01-15T12:11:33;51.40;;;39.10;;
26407;SDS011;14583;43.604;1.364;2024-01-15T12:14:01;57.25;;;40.13;;
26407;SDS011;14583;43.604;1.364;2024-01-15T12:16:27;51.42;;;37.90;;
26407;SDS011;14583;43.604;1.364;2024-01-15T12:18:53;48.50;;;37.90;;
26407;SDS011;14583;43.604;1.364;2024-01-15T12:21:18;43.53;;;35.28;;
26407;SDS011;14583;43.604;1.364;2024-01-15T12:23:47;44.72;;;35.03;;
26407;SDS011;14583;43.604;1.364;2024-01-15T12:26:13;46.30;;;35.42;;
26407;SDS011;14583;43.604;1.364;2024-01-15T12:28:45;45.03;;;33.92;;
26407;SDS011;14583;43.604;1.364;2024-01-15T12:31:16;44.65;;;34.60;;
26407;SDS011;14583;43.604;1.364;2024-01-15T12:33:42;52.78;;;41.65;;
26407;SDS011;14583;43.604;1.364;2024-01-15T12:36:08;70.18;;;52.90;;
26407;SDS011;14583;43.604;1.364;2024-01-15T12:38:33;81.50;;;56.40;;
26407;SDS011;14583;43.604;1.364;2024-01-15T12:41:00;64.53;;;47.13;;
26407;SDS011;14583;43.604;1.364;2024-01-15T12:43:26;52.10;;;40.65;;
26407;SDS011;14583;43.604;1.364;2024-01-15T12:45:52;52.60;;;39.97;;
26407;SDS011;14583;43.604;1.364;2024-01-15T12:48:18;49.50;;;38.08;;
26407;SDS011;14583;43.604;1.364;2024-01-15T12:50:44;47.10;;;36.95;;
26407;SDS011;14583;43.604;1.364;2024-01-15T12:53:10;47.08;;;38.35;;
26407;SDS011;14583;43.604;1.364;2024-01-15T12:55:36;44.80;;;35.83;;
26407;SDS011;14583;43.604;1.364;2024-01-15T12:58:02;46.50;;;35.47;;
26407;SDS011;14583;43.604;1.364;2024-01-15T13:00:27;46.05;;;35.35;;
26407;SDS011;14583;43.604;1.364;2024-01-15T13:02:53;42.97;;;36.08;;
26407;SDS011;14583;43.604;1.364;2024-01-15T13:05:20;48.15;;;36.40;;
26407;SDS011;14583;43.604;1.364;2024-01-15T13:07:46;42.78;;;38.00;;
26407;SDS011;14583;43.604;1.364;2024-01-15T13:10:12;53.25;;;37.45;;
26407;SDS011;14583;43.604;1.364;2024-01-15T13:12:37;51.67;;;37.83;;
26407;SDS011;14583;43.604;1.364;2024-01-15T13:15:04;51.15;;;37.67;;
26407;SDS011;14583;43.604;1.364;2024-01-15T13:17:30;51.38;;;41.58;;
26407;SDS011;14583;43.604;1.364;2024-01-15T13:19:55;45.63;;;38.50;;
26407;SDS011;14583;43.604;1.364;2024-01-15T13:22:21;51.15;;;40.83;;
26407;SDS011;14583;43.604;1.364;2024-01-15T13:24:47;51.13;;;41.70;;
26407;SDS011;14583;43.604;1.364;2024-01-15T13:27:13;54.72;;;43.90;;
26407;SDS011;14583;43.604;1.364;2024-01-15T13:29:38;53.22;;;43.45;;
26407;SDS011;14583;43.604;1.364;2024-01-15T13:32:04;54.38;;;42.83;;
26407;SDS011;14583;43.604;1.364;2024-01-15T13:34:30;56.17;;;43.15;;
26407;SDS011;14583;43.604;1.364;2024-01-15T13:36:56;52.22;;;40.90;;
26407;SDS011;14583;43.604;1.364;2024-01-15T13:39:22;56.60;;;43.55;;
26407;SDS011;14583;43.604;1.364;2024-01-15T13:41:48;56.80;;;43.90;;
26407;SDS011;14583;43.604;1.364;2024-01-15T13:44:14;55.00;;;41.67;;
26407;SDS011;14583;43.604;1.364;2024-01-15T13:46:40;53.95;;;40.85;;
26407;SDS011;14583;43.604;1.364;2024-01-15T13:49:07;58.47;;;43.45;;
26407;SDS011;14583;43.604;1.364;2024-01-15T13:51:34;57.78;;;43.17;;
26407;SDS011;14583;43.604;1.364;2024-01-15T13:54:00;57.85;;;44.13;;
26407;SDS011;14583;43.604;1.364;2024-01-15T13:56:26;57.42;;;43.33;;
26407;SDS011;14583;43.604;1.364;2024-01-15T13:58:56;58.40;;;45.03;;
26407;SDS011;14583;43.604;1.364;2024-01-15T14:01:23;54.85;;;40.45;;
26407;SDS011;14583;43.604;1.364;2024-01-15T14:03:49;51.75;;;39.58;;
26407;SDS011;14583;43.604;1.364;2024-01-15T14:06:14;56.72;;;40.83;;
26407;SDS011;14583;43.604;1.364;2024-01-15T14:08:40;51.83;;;40.03;;
26407;SDS011;14583;43.604;1.364;2024-01-15T14:11:06;54.45;;;38.38;;
26407;SDS011;14583;43.604;1.364;2024-01-15T14:13:32;49.33;;;38.17;;
26407;SDS011;14583;43.604;1.364;2024-01-15T14:15:58;55.58;;;41.47;;
26407;SDS011;14583;43.604;1.364;2024-01-15T14:18:25;55.97;;;42.13;;
26407;SDS011;14583;43.604;1.364;2024-01-15T14:20:51;50.67;;;40.28;;
26407;SDS011;14583;43.604;1.364;2024-01-15T14:23:18;52.13;;;37.90;;
26407;SDS011;14583;43.604;1.364;2024-01-15T14:25:44;50.58;;;38.35;;